createdAt,value
2023-02-24T06:03:04.794Z,22.06
2023-02-24T06:04:04.789Z,22.31
2023-02-24T06:05:05.751Z,22.37
2023-02-24T06:06:05.775Z,22.41
2023-02-24T06:07:05.793Z,22.45
2023-02-24T06:08:05.832Z,22.47
2023-02-24T06:09:05.867Z,22.50
2023-02-24T06:10:05.906Z,22.50
2023-02-24T06:11:04.928Z,22.52
2023-02-24T06:12:05.061Z,22.53
2023-02-24T06:13:05.961Z,22.53
2023-02-24T06:14:05.959Z,22.55
2023-02-24T06:15:05.961Z,22.56
2023-02-24T06:16:04.979Z,22.57
2023-02-24T06:17:05.968Z,22.57
2023-02-24T06:18:05.986Z,22.58
2023-02-24T06:19:06.036Z,22.58
2023-02-24T06:20:06.010Z,22.58
2023-02-24T06:21:06.033Z,22.58
2023-02-24T06:22:05.061Z,22.58
2023-02-24T06:23:05.069Z,22.59
2023-02-24T06:24:05.077Z,22.59
2023-02-24T06:25:06.119Z,22.60
2023-02-24T06:26:06.101Z,22.60
2023-02-24T06:27:06.118Z,22.60
2023-02-24T06:28:06.157Z,22.60
2023-02-24T06:29:06.187Z,22.60
2023-02-24T06:30:06.238Z,22.61
2023-02-24T06:31:06.306Z,22.62
2023-02-24T06:32:06.481Z,22.62
2023-02-24T06:33:05.400Z,22.62
2023-02-24T06:34:06.451Z,22.62
2023-02-24T06:35:06.514Z,22.62
2023-02-24T06:36:06.557Z,22.63
2023-02-24T06:37:06.594Z,22.63
2023-02-24T06:38:06.668Z,22.63
2023-02-24T06:39:06.722Z,22.64
2023-02-24T06:40:06.799Z,22.64
2023-02-24T06:41:06.837Z,22.64
2023-02-24T06:42:05.916Z,22.64
2023-02-24T06:43:06.996Z,22.65
2023-02-24T06:44:07.037Z,22.65
2023-02-24T06:45:07.873Z,22.65
2023-02-24T06:46:07.253Z,22.64
2023-02-24T06:47:07.213Z,22.66
2023-02-24T06:48:07.290Z,22.66
2023-02-24T06:49:07.339Z,22.66
2023-02-24T06:51:06.496Z,22.66
2023-02-24T06:53:06.566Z,22.66
2023-02-24T06:54:06.644Z,22.67
2023-02-24T06:55:07.702Z,22.67
2023-02-24T06:56:07.760Z,22.68
2023-02-24T06:58:07.870Z,22.68
2023-02-24T06:59:07.966Z,22.68
2023-02-24T07:00:08.001Z,22.68
2023-02-24T07:01:08.207Z,22.69
2023-02-24T07:02:07.115Z,22.68
2023-02-24T07:04:08.318Z,22.70
2023-02-24T07:05:08.251Z,22.68
2023-02-24T07:06:07.309Z,22.69
2023-02-24T07:07:08.398Z,22.72
2023-02-24T07:08:07.432Z,22.74
2023-02-24T07:09:08.501Z,22.76
2023-02-24T07:10:07.548Z,22.79
2023-02-24T07:11:08.576Z,22.82
2023-02-24T07:14:08.705Z,22.90
2023-02-24T07:18:08.810Z,23.00
2023-02-24T07:19:08.845Z,23.03
2023-02-24T07:20:08.853Z,23.05
2023-02-24T07:21:08.931Z,23.07
2023-02-24T07:22:08.907Z,23.10
2023-02-24T07:23:07.967Z,23.13
2023-02-24T07:24:08.962Z,23.15
2023-02-24T07:25:08.958Z,23.19
2023-02-24T07:26:09.052Z,23.21
2023-02-24T07:27:08.995Z,23.22
2023-02-24T07:28:09.000Z,23.24
2023-02-24T07:29:08.008Z,23.25
2023-02-24T07:30:09.001Z,23.27
2023-02-24T07:31:09.169Z,23.29
2023-02-24T07:32:08.211Z,23.31
2023-02-24T07:34:09.040Z,23.35
2023-02-24T07:36:09.042Z,23.38
2023-02-24T07:37:09.056Z,23.39
2023-02-24T07:38:09.011Z,23.40
2023-02-24T07:39:09.127Z,23.42
2023-02-24T07:40:09.013Z,23.43
2023-02-24T07:41:09.036Z,23.44
2023-02-24T07:42:09.027Z,23.45
2023-02-24T07:43:09.037Z,23.46
2023-02-24T07:44:09.099Z,23.45
2023-02-24T07:45:09.096Z,23.46
2023-02-24T07:46:09.144Z,23.47
2023-02-24T07:47:09.033Z,23.48
2023-02-24T07:48:09.050Z,23.49
2023-02-24T07:49:09.057Z,23.49
2023-02-24T07:50:09.042Z,23.46
2023-02-24T07:51:09.085Z,23.41
2023-02-24T07:52:09.080Z,23.30
2023-02-24T07:53:08.115Z,23.22
2023-02-24T07:54:09.474Z,23.08
2023-02-24T07:55:09.250Z,22.99
2023-02-24T07:56:09.240Z,22.87
2023-02-24T07:57:09.349Z,22.82
2023-02-24T07:58:09.316Z,22.82
2023-02-24T07:59:09.327Z,22.81
2023-02-24T08:00:11.374Z,22.81
2023-02-24T08:01:08.354Z,22.79
2023-02-24T08:02:08.404Z,22.76
2023-02-24T08:03:09.356Z,22.74
2023-02-24T08:04:09.313Z,22.75
2023-02-24T08:05:09.373Z,22.75
2023-02-24T08:06:09.296Z,22.74
2023-02-24T08:08:09.278Z,22.70
2023-02-24T08:09:09.275Z,22.65
2023-02-24T08:10:09.250Z,22.61
2023-02-24T08:11:08.274Z,22.56
2023-02-24T08:12:09.237Z,22.53
2023-02-24T08:13:09.240Z,22.50
2023-02-24T08:14:09.233Z,22.46
2023-02-24T08:15:09.289Z,22.41
2023-02-24T08:16:09.247Z,22.37
2023-02-24T08:17:09.211Z,22.33
2023-02-24T08:18:09.209Z,22.29
2023-02-24T08:20:09.211Z,22.10
2023-02-24T08:21:09.242Z,22.15
2023-02-24T08:22:09.173Z,22.18
2023-02-24T08:23:09.162Z,22.23
2023-02-24T08:25:09.153Z,22.28
2023-02-24T08:26:09.197Z,22.26
2023-02-24T08:27:09.168Z,22.24
2023-02-24T08:28:09.795Z,22.23
2023-02-24T08:29:09.138Z,22.18
2023-02-24T08:30:09.107Z,22.17
2023-02-24T08:31:09.156Z,22.15
2023-02-24T08:32:09.237Z,22.07
2023-02-24T08:33:09.196Z,22.08
2023-02-24T08:34:09.086Z,22.16
2023-02-24T08:36:09.070Z,22.32
2023-02-24T08:37:09.112Z,22.42
2023-02-24T08:40:09.175Z,22.71
2023-02-24T08:41:09.189Z,22.78
2023-02-24T08:42:09.257Z,22.84
2023-02-24T08:43:09.340Z,22.89
2023-02-24T08:44:09.382Z,22.96
2023-02-24T08:46:08.493Z,23.05
2023-02-24T08:47:09.535Z,22.96
2023-02-24T08:48:09.608Z,22.88
2023-02-24T08:49:09.018Z,22.78
2023-02-24T08:50:09.628Z,22.66
2023-02-24T08:51:09.626Z,22.59
2023-02-24T08:52:08.667Z,22.50
2023-02-24T08:53:08.710Z,22.43
2023-02-24T08:54:09.075Z,22.35
2023-02-24T08:55:09.826Z,22.33
2023-02-24T08:56:09.867Z,22.29
2023-02-24T08:57:08.912Z,22.29
2023-02-24T08:58:09.954Z,22.28
2023-02-24T08:59:09.043Z,22.26
2023-02-24T09:00:10.067Z,22.25
2023-02-24T09:01:10.157Z,22.22
2023-02-24T09:02:10.176Z,22.21
2023-02-24T09:03:10.218Z,22.23
2023-02-24T09:04:10.390Z,22.19
2023-02-24T09:05:13.049Z,22.19
2023-02-24T09:06:10.326Z,22.20
2023-02-24T09:07:11.955Z,22.21
2023-02-24T09:11:09.364Z,22.23
2023-02-24T09:12:09.270Z,22.26
2023-02-24T09:13:10.268Z,22.27
2023-02-24T09:14:21.146Z,22.29
2023-02-24T09:15:10.283Z,22.30
2023-02-24T09:16:10.299Z,22.30
2023-02-24T09:17:10.227Z,22.29
2023-02-24T09:18:10.237Z,22.31
2023-02-24T09:20:10.252Z,22.36
2023-02-24T09:21:10.209Z,22.38
2023-02-24T09:22:16.572Z,22.41
2023-02-24T09:23:10.195Z,22.41
2023-02-24T09:24:10.192Z,22.43
2023-02-24T09:25:10.174Z,22.41
2023-02-24T09:26:09.181Z,22.43
2023-02-24T09:27:10.156Z,22.43
2023-02-24T09:28:09.226Z,22.44
2023-02-24T09:29:10.178Z,22.44
2023-02-24T09:30:10.193Z,22.44
2023-02-24T09:31:10.301Z,22.45
2023-02-24T09:32:09.307Z,22.43
2023-02-24T09:33:10.266Z,22.42
2023-02-24T09:34:10.129Z,22.40
2023-02-24T09:35:09.117Z,22.40
2023-02-24T09:36:10.304Z,22.42
2023-02-24T09:37:10.107Z,22.43
2023-02-24T09:38:10.120Z,22.43
2023-02-24T09:39:10.125Z,22.43
2023-02-24T09:40:09.068Z,22.41
2023-02-24T09:41:18.308Z,22.41
2023-02-24T09:42:10.073Z,22.33
2023-02-24T09:43:10.162Z,22.26
2023-02-24T09:45:10.048Z,22.07
2023-02-24T09:46:10.197Z,22.04
2023-02-24T09:47:10.080Z,21.92
2023-02-24T09:48:09.018Z,21.85
2023-02-24T09:49:10.012Z,21.86
2023-02-24T09:50:10.003Z,21.83
2023-02-24T09:52:09.999Z,21.80
2023-02-24T09:53:11.415Z,21.77
2023-02-24T09:54:09.082Z,21.78
2023-02-24T09:55:09.089Z,21.82
2023-02-24T09:56:09.071Z,21.87
2023-02-24T09:57:10.187Z,21.92
2023-02-24T09:58:10.198Z,21.95
2023-02-24T10:00:10.277Z,22.05
2023-02-24T10:01:09.348Z,22.11
2023-02-24T10:02:09.488Z,22.15
2023-02-24T10:03:10.454Z,22.20
2023-02-24T10:04:20.352Z,22.23
2023-02-24T10:05:10.466Z,22.25
2023-02-24T10:06:10.462Z,22.30
2023-02-24T10:07:10.479Z,22.31
2023-02-24T10:08:09.466Z,22.34
2023-02-24T10:09:10.441Z,22.36
2023-02-24T10:10:10.428Z,22.40
2023-02-24T10:11:10.417Z,22.42
2023-02-24T10:12:10.407Z,22.42
2023-02-24T10:13:09.400Z,22.45
2023-02-24T10:14:10.427Z,22.49
2023-02-24T10:15:09.388Z,22.54
2023-02-24T10:16:10.454Z,22.57
2023-02-24T10:17:10.370Z,22.60
2023-02-24T10:18:09.363Z,22.61
2023-02-24T10:19:10.416Z,22.64
2023-02-24T10:20:10.350Z,22.64
2023-02-24T10:21:10.419Z,22.64
2023-02-24T10:22:10.344Z,22.67
2023-02-24T10:23:09.361Z,22.68
2023-02-24T10:24:09.357Z,22.69
2023-02-24T10:25:09.320Z,22.67
2023-02-24T10:26:10.319Z,22.70
2023-02-24T10:27:16.764Z,22.70
2023-02-24T10:28:10.316Z,22.69
2023-02-24T10:29:10.300Z,22.74
2023-02-24T10:30:09.273Z,22.77
2023-02-24T10:31:10.664Z,22.76
2023-02-24T10:32:10.632Z,22.77
2023-02-24T10:33:09.257Z,22.77
2023-02-24T10:34:10.251Z,22.78
2023-02-24T10:35:10.277Z,22.79
2023-02-24T10:36:10.226Z,22.80
2023-02-24T10:37:14.090Z,22.80
2023-02-24T10:38:10.224Z,22.82
2023-02-24T10:39:10.230Z,22.84
2023-02-24T10:40:10.478Z,22.85
2023-02-24T10:41:10.192Z,22.85
2023-02-24T10:42:10.238Z,22.87
2023-02-24T10:43:10.239Z,22.87
2023-02-24T10:44:10.279Z,22.86
2023-02-24T10:45:09.843Z,22.85
2023-02-24T10:46:09.194Z,22.84
2023-02-24T10:47:10.160Z,22.81
2023-02-24T10:48:12.000Z,22.80
2023-02-24T10:49:09.138Z,22.82
2023-02-24T10:50:10.552Z,22.84
2023-02-24T10:51:10.156Z,22.86
2023-02-24T10:52:10.203Z,22.88
2023-02-24T10:53:10.108Z,22.91
2023-02-24T10:54:10.433Z,22.93
2023-02-24T10:55:10.141Z,22.96
2023-02-24T10:56:10.117Z,22.99
2023-02-24T10:57:09.075Z,23.02
2023-02-24T10:58:10.062Z,23.05
2023-02-24T10:59:10.058Z,23.06
2023-02-24T11:00:09.055Z,23.09
2023-02-24T11:01:10.165Z,23.11
2023-02-24T11:02:10.064Z,23.13
2023-02-24T11:03:09.097Z,23.16
2023-02-24T11:04:10.024Z,23.18
2023-02-24T11:05:10.019Z,23.18
2023-02-24T11:06:10.031Z,23.19
2023-02-24T11:07:10.033Z,23.20
2023-02-24T11:08:09.985Z,23.20
2023-02-24T11:09:09.991Z,23.23
2023-02-24T11:10:10.494Z,23.26
2023-02-24T11:11:09.964Z,23.29
2023-02-24T11:12:09.961Z,23.31
2023-02-24T11:13:10.379Z,23.35
2023-02-24T11:14:09.962Z,23.37
2023-02-24T11:15:09.954Z,23.38
2023-02-24T11:16:10.048Z,23.37
2023-02-24T11:17:09.918Z,23.36
2023-02-24T11:18:08.925Z,23.36
2023-02-24T11:19:08.918Z,23.35
2023-02-24T11:20:09.911Z,23.35
2023-02-24T11:21:08.906Z,23.35
2023-02-24T11:22:09.886Z,23.33
2023-02-24T11:23:08.915Z,23.33
2023-02-24T11:24:08.889Z,23.31
2023-02-24T11:25:09.921Z,23.27
2023-02-24T11:26:09.951Z,23.16
2023-02-24T11:27:09.990Z,23.11
2023-02-24T11:28:10.273Z,23.10
2023-02-24T11:30:09.151Z,23.04
2023-02-24T11:31:10.411Z,23.01
2023-02-24T11:32:12.675Z,22.98
2023-02-24T11:33:10.299Z,22.91
2023-02-24T11:34:09.451Z,22.92
2023-02-24T11:35:10.257Z,22.91
2023-02-24T11:37:10.671Z,22.87
2023-02-24T11:38:10.506Z,22.88
2023-02-24T11:39:18.923Z,22.85
2023-02-24T11:40:10.241Z,22.76
2023-02-24T11:41:10.496Z,22.59
2023-02-24T11:42:10.199Z,22.04
2023-02-24T11:43:10.523Z,21.43
2023-02-24T11:44:13.300Z,21.40
2023-02-24T11:45:10.572Z,21.32
2023-02-24T11:46:10.234Z,21.37
2023-02-24T11:47:10.177Z,21.50
2023-02-24T11:48:10.158Z,21.65
2023-02-24T11:49:10.142Z,21.80
2023-02-24T11:50:10.144Z,21.98
2023-02-24T11:51:09.142Z,22.12
2023-02-24T11:52:10.130Z,22.23
2023-02-24T11:53:10.124Z,22.33
2023-02-24T11:54:10.125Z,22.43
2023-02-24T11:55:10.140Z,22.52
2023-02-24T11:56:10.112Z,22.59
2023-02-24T11:57:10.099Z,22.66
2023-02-24T11:58:10.143Z,22.72
2023-02-24T11:59:10.210Z,22.77
2023-02-24T12:00:10.289Z,22.82
2023-02-24T12:01:09.322Z,22.85
2023-02-24T12:02:10.371Z,22.89
2023-02-24T12:03:10.484Z,22.86
2023-02-24T12:04:10.476Z,22.88
2023-02-24T12:05:10.521Z,22.89
2023-02-24T12:06:10.670Z,22.90
2023-02-24T12:07:10.613Z,22.91
2023-02-24T12:08:10.672Z,22.93
2023-02-24T12:09:10.709Z,22.94
2023-02-24T12:10:17.184Z,22.98
2023-02-24T12:11:10.776Z,23.02
2023-02-24T12:12:12.812Z,23.05
2023-02-24T12:13:10.751Z,23.05
2023-02-24T12:14:10.738Z,23.05
2023-02-24T12:15:10.727Z,23.04
2023-02-24T12:16:10.772Z,23.03
2023-02-24T12:17:10.706Z,22.97
2023-02-24T12:18:10.671Z,22.91
2023-02-24T12:19:09.693Z,22.91
2023-02-24T12:20:10.701Z,22.91
2023-02-24T12:21:10.686Z,22.93
2023-02-24T12:22:10.684Z,22.92
2023-02-24T12:23:10.685Z,22.91
2023-02-24T12:24:10.668Z,22.92
2023-02-24T12:25:10.674Z,22.93
2023-02-24T12:26:10.704Z,22.94
2023-02-24T12:27:10.782Z,22.94
2023-02-24T12:28:10.810Z,22.91
2023-02-24T12:29:10.869Z,22.92
2023-02-24T12:30:09.922Z,22.92
2023-02-24T12:31:11.163Z,22.89
2023-02-24T12:32:11.301Z,22.89
2023-02-24T12:33:11.167Z,22.16
2023-02-24T12:34:11.116Z,21.65
2023-02-24T12:35:11.171Z,21.46
2023-02-24T12:36:11.196Z,21.36
2023-02-24T12:37:10.214Z,21.49
2023-02-24T12:38:11.231Z,21.60
2023-02-24T12:39:11.295Z,21.67
2023-02-24T12:40:11.605Z,21.78
2023-02-24T12:41:10.339Z,21.87
2023-02-24T12:42:11.406Z,21.90
2023-02-24T12:43:10.475Z,21.93
2023-02-24T12:44:11.531Z,21.94
2023-02-24T12:45:10.581Z,21.97
2023-02-24T12:46:10.707Z,22.02
2023-02-24T12:47:10.679Z,22.08
2023-02-24T12:48:11.722Z,22.11
2023-02-24T12:49:11.765Z,22.11
2023-02-24T12:50:10.857Z,22.12
2023-02-24T12:51:11.853Z,22.11
2023-02-24T12:52:11.916Z,22.08
2023-02-24T12:53:11.946Z,22.14
2023-02-24T12:54:12.006Z,22.16
2023-02-24T12:55:12.064Z,22.20
2023-02-24T12:56:11.063Z,22.15
2023-02-24T12:57:11.125Z,22.12
2023-02-24T12:58:12.171Z,22.11
2023-02-24T12:59:11.390Z,22.12
2023-02-24T13:00:12.387Z,22.15
2023-02-24T13:01:12.498Z,22.14
2023-02-24T13:02:11.403Z,22.06
2023-02-24T13:03:12.406Z,22.05
2023-02-24T13:04:12.479Z,22.01
2023-02-24T13:05:12.558Z,22.01
2023-02-24T13:06:12.584Z,22.01
2023-02-24T13:07:12.671Z,21.99
2023-02-24T13:08:12.694Z,22.02
2023-02-24T13:09:12.777Z,22.05
2023-02-24T13:10:11.829Z,22.07
2023-02-24T13:11:14.341Z,22.08
2023-02-24T13:12:12.860Z,22.10
2023-02-24T13:13:11.876Z,22.12
2023-02-24T13:14:12.842Z,22.11
2023-02-24T13:15:12.859Z,22.12
2023-02-24T13:16:11.856Z,22.13
2023-02-24T13:17:13.583Z,22.14
2023-02-24T13:18:12.807Z,21.44
2023-02-24T13:19:12.872Z,21.41
2023-02-24T13:20:12.793Z,21.47
2023-02-24T13:21:11.794Z,21.54
2023-02-24T13:22:12.795Z,21.53
2023-02-24T13:23:11.782Z,21.52
2023-02-24T13:24:12.767Z,21.56
2023-02-24T13:25:12.762Z,21.62
2023-02-24T13:26:12.745Z,21.56
2023-02-24T13:27:12.745Z,21.35
2023-02-24T13:28:11.732Z,21.23
2023-02-24T13:29:12.730Z,21.04
2023-02-24T13:30:11.933Z,20.95
2023-02-24T13:31:12.744Z,20.93
2023-02-24T13:32:12.840Z,20.82
2023-02-24T13:33:11.683Z,20.88
2023-02-24T13:34:12.680Z,21.01
2023-02-24T13:35:11.679Z,21.14
2023-02-24T13:36:12.672Z,21.25
2023-02-24T13:37:11.683Z,21.35
2023-02-24T13:38:12.658Z,21.44
2023-02-24T13:39:12.645Z,21.36
2023-02-24T13:40:11.636Z,21.29
2023-02-24T13:41:11.682Z,21.23
2023-02-24T13:42:12.689Z,21.04
2023-02-24T13:43:12.696Z,21.00
2023-02-24T13:44:11.705Z,20.87
2023-02-24T13:45:12.725Z,20.81
2023-02-24T13:46:12.840Z,20.68
2023-02-24T13:47:11.860Z,20.42
2023-02-24T13:48:12.816Z,20.31
2023-02-24T13:49:11.845Z,20.30
2023-02-24T13:50:12.855Z,20.35
2023-02-24T13:51:12.864Z,20.42
2023-02-24T13:52:12.876Z,20.27
2023-02-24T13:53:12.897Z,20.18
2023-02-24T13:54:11.929Z,20.20
2023-02-24T13:55:12.981Z,20.27
2023-02-24T13:56:12.965Z,20.35
2023-02-24T13:57:12.973Z,20.30
2023-02-24T13:58:11.982Z,20.37
2023-02-24T13:59:11.995Z,20.51
2023-02-24T14:00:13.063Z,20.61
2023-02-24T14:01:13.145Z,20.70
2023-02-24T14:02:12.242Z,20.67
2023-02-24T14:03:13.243Z,20.71
2023-02-24T14:04:12.253Z,20.84
2023-02-24T14:05:12.269Z,20.84
2023-02-24T14:06:13.326Z,20.82
2023-02-24T14:07:13.368Z,20.68
2023-02-24T14:08:12.410Z,20.76
2023-02-24T14:09:13.437Z,20.77
2023-02-24T14:10:13.443Z,20.86
2023-02-24T14:11:13.480Z,20.86
2023-02-24T14:12:13.485Z,20.83
2023-02-24T14:13:12.538Z,20.88
2023-02-24T14:14:13.510Z,20.82
2023-02-24T14:15:12.531Z,20.66
2023-02-24T14:16:14.195Z,20.70
2023-02-24T14:17:13.577Z,20.83
2023-02-24T14:18:13.667Z,20.90
2023-02-24T14:19:13.632Z,20.82
2023-02-24T14:20:13.622Z,20.82
2023-02-24T14:21:12.648Z,20.84
2023-02-24T14:22:13.268Z,20.83
2023-02-24T14:23:13.702Z,20.73
2023-02-24T14:24:13.803Z,20.74
2023-02-24T14:25:12.818Z,20.68
2023-02-24T14:26:13.892Z,20.74
2023-02-24T14:27:15.009Z,20.79
2023-02-24T14:28:13.895Z,20.82
2023-02-24T14:29:13.922Z,20.77
2023-02-24T14:30:13.887Z,20.77
2023-02-24T14:31:13.024Z,20.75
2023-02-24T14:32:12.998Z,20.80
2023-02-24T14:33:12.883Z,20.86
2023-02-24T14:34:13.852Z,21.00
2023-02-24T14:35:12.875Z,21.09
2023-02-24T14:36:12.842Z,21.14
2023-02-24T14:37:13.836Z,21.09
2023-02-24T14:38:13.828Z,21.08
2023-02-24T14:39:12.832Z,20.70
2023-02-24T14:40:12.814Z,20.65
2023-02-24T14:41:12.818Z,20.77
2023-02-24T14:42:12.842Z,20.86
2023-02-24T14:43:12.811Z,20.92
2023-02-24T14:44:13.806Z,20.87
2023-02-24T14:45:12.796Z,20.99
2023-02-24T14:46:13.859Z,20.96
2023-02-24T14:47:13.804Z,20.82
2023-02-24T14:48:12.757Z,20.47
2023-02-24T14:49:13.762Z,20.38
2023-02-24T14:50:13.756Z,20.48
2023-02-24T14:51:13.785Z,20.62
2023-02-24T14:52:12.726Z,20.72
2023-02-24T14:53:12.734Z,20.74
2023-02-24T14:54:13.717Z,20.82
2023-02-24T14:55:13.740Z,20.82
2023-02-24T14:56:13.791Z,20.90
2023-02-24T14:57:12.695Z,20.93
2023-02-24T14:58:13.686Z,21.05
2023-02-24T15:57:15.192Z,22.01
2023-02-24T16:01:14.450Z,22.03
2023-02-24T16:05:15.455Z,22.05
2023-02-24T16:08:15.560Z,22.05
2023-02-24T16:11:15.694Z,22.04
2023-02-24T16:16:15.870Z,22.05
2023-02-24T16:17:15.856Z,22.05
2023-02-24T16:18:15.885Z,22.05
2023-02-24T16:19:15.911Z,22.05
2023-02-24T16:20:15.971Z,22.05
2023-02-24T16:21:16.044Z,22.05
2023-02-24T16:22:16.014Z,22.06
2023-02-24T16:24:16.072Z,22.04
2023-02-24T16:25:16.115Z,22.05
2023-02-24T16:26:16.218Z,22.05
2023-02-24T16:27:16.207Z,22.04
